sensor_id;sensor_type;location;lat;lon;timestamp;P1;durP1;ratioP1;P2;durP2;ratioP2
37997;SDS011;24079;51.824;4.682;2023-06-01T00:01:52;23.92;;;14.77;;
37997;SDS011;24079;51.824;4.682;2023-06-01T00:04:17;25.10;;;15.68;;
37997;SDS011;24079;51.824;4.682;2023-06-01T00:06:43;30.88;;;13.98;;
37997;SDS011;24079;51.824;4.682;2023-06-01T00:09:09;26.73;;;14.75;;
37997;SDS011;24079;51.824;4.682;2023-06-01T00:11:35;27.98;;;15.15;;
37997;SDS011;24079;51.824;4.682;2023-06-01T00:14:01;30.83;;;15.25;;
37997;SDS011;24079;51.824;4.682;2023-06-01T00:16:27;24.08;;;14.10;;
37997;SDS011;24079;51.824;4.682;2023-06-01T00:18:55;29.25;;;14.85;;
37997;SDS011;24079;51.824;4.682;2023-06-01T00:21:21;30.23;;;15.27;;
37997;SDS011;24079;51.824;4.682;2023-06-01T00:23:48;31.20;;;15.02;;
37997;SDS011;24079;51.824;4.682;2023-06-01T00:26:14;24.63;;;15.13;;
37997;SDS011;24079;51.824;4.682;2023-06-01T00:28:40;31.65;;;16.48;;
37997;SDS011;24079;51.824;4.682;2023-06-01T00:31:06;28.75;;;15.07;;
37997;SDS011;24079;51.824;4.682;2023-06-01T00:33:32;28.83;;;15.10;;
37997;SDS011;24079;51.824;4.682;2023-06-01T00:35:57;25.27;;;14.95;;
37997;SDS011;24079;51.824;4.682;2023-06-01T00:38:23;27.92;;;15.15;;
37997;SDS011;24079;51.824;4.682;2023-06-01T00:40:48;23.38;;;14.48;;
37997;SDS011;24079;51.824;4.682;2023-06-01T00:43:17;26.67;;;15.05;;
37997;SDS011;24079;51.824;4.682;2023-06-01T00:45:43;27.67;;;14.35;;
37997;SDS011;24079;51.824;4.682;2023-06-01T00:48:09;23.55;;;14.13;;
37997;SDS011;24079;51.824;4.682;2023-06-01T00:50:36;26.27;;;13.65;;
37997;SDS011;24079;51.824;4.682;2023-06-01T00:53:02;21.33;;;13.32;;
37997;SDS011;24079;51.824;4.682;2023-06-01T00:55:30;26.77;;;12.25;;
37997;SDS011;24079;51.824;4.682;2023-06-01T00:57:56;25.48;;;12.68;;
37997;SDS011;24079;51.824;4.682;2023-06-01T01:00:22;23.67;;;13.02;;
37997;SDS011;24079;51.824;4.682;2023-06-01T01:02:51;21.95;;;13.07;;
37997;SDS011;24079;51.824;4.682;2023-06-01T01:05:17;20.92;;;11.20;;
37997;SDS011;24079;51.824;4.682;2023-06-01T01:10:58;21.25;;;11.65;;
37997;SDS011;24079;51.824;4.682;2023-06-01T01:13:39;18.15;;;10.90;;
37997;SDS011;24079;51.824;4.682;2023-06-01T01:21:41;21.27;;;11.77;;
37997;SDS011;24079;51.824;4.682;2023-06-01T01:30:16;24.98;;;12.40;;
37997;SDS011;24079;51.824;4.682;2023-06-01T01:32:46;23.95;;;12.50;;
37997;SDS011;24079;51.824;4.682;2023-06-01T01:35:13;20.13;;;11.95;;
37997;SDS011;24079;51.824;4.682;2023-06-01T01:37:49;20.63;;;12.75;;
37997;SDS011;24079;51.824;4.682;2023-06-01T01:40:19;27.10;;;13.68;;
37997;SDS011;24079;51.824;4.682;2023-06-01T01:42:45;24.55;;;13.77;;
37997;SDS011;24079;51.824;4.682;2023-06-01T01:45:12;25.88;;;13.13;;
37997;SDS011;24079;51.824;4.682;2023-06-01T01:47:49;25.30;;;13.48;;
37997;SDS011;24079;51.824;4.682;2023-06-01T01:50:22;22.75;;;12.95;;
37997;SDS011;24079;51.824;4.682;2023-06-01T01:52:52;22.88;;;12.93;;
37997;SDS011;24079;51.824;4.682;2023-06-01T01:55:20;23.75;;;12.23;;
37997;SDS011;24079;51.824;4.682;2023-06-01T01:57:48;20.25;;;10.77;;
37997;SDS011;24079;51.824;4.682;2023-06-01T02:00:16;20.73;;;11.25;;
37997;SDS011;24079;51.824;4.682;2023-06-01T02:02:44;18.50;;;10.63;;
37997;SDS011;24079;51.824;4.682;2023-06-01T02:05:10;25.70;;;11.68;;
37997;SDS011;24079;51.824;4.682;2023-06-01T02:07:36;18.35;;;10.75;;
37997;SDS011;24079;51.824;4.682;2023-06-01T02:10:02;18.10;;;11.35;;
37997;SDS011;24079;51.824;4.682;2023-06-01T02:12:28;21.17;;;11.30;;
37997;SDS011;24079;51.824;4.682;2023-06-01T02:14:53;22.60;;;11.57;;
37997;SDS011;24079;51.824;4.682;2023-06-01T02:17:19;21.25;;;11.55;;
37997;SDS011;24079;51.824;4.682;2023-06-01T02:19:46;19.75;;;10.63;;
37997;SDS011;24079;51.824;4.682;2023-06-01T02:22:12;19.50;;;11.30;;
37997;SDS011;24079;51.824;4.682;2023-06-01T02:24:38;21.85;;;10.35;;
37997;SDS011;24079;51.824;4.682;2023-06-01T02:27:04;25.45;;;11.38;;
37997;SDS011;24079;51.824;4.682;2023-06-01T02:29:30;21.80;;;10.75;;
37997;SDS011;24079;51.824;4.682;2023-06-01T02:31:56;20.55;;;10.75;;
37997;SDS011;24079;51.824;4.682;2023-06-01T02:34:21;18.60;;;10.30;;
37997;SDS011;24079;51.824;4.682;2023-06-01T02:36:47;20.00;;;10.70;;
37997;SDS011;24079;51.824;4.682;2023-06-01T02:39:14;18.02;;;10.50;;
37997;SDS011;24079;51.824;4.682;2023-06-01T02:41:40;20.30;;;11.05;;
37997;SDS011;24079;51.824;4.682;2023-06-01T02:44:06;22.98;;;11.00;;
37997;SDS011;24079;51.824;4.682;2023-06-01T02:46:32;19.45;;;11.02;;
37997;SDS011;24079;51.824;4.682;2023-06-01T02:48:58;24.60;;;12.40;;
37997;SDS011;24079;51.824;4.682;2023-06-01T02:51:24;25.25;;;11.82;;
37997;SDS011;24079;51.824;4.682;2023-06-01T02:53:51;17.33;;;10.70;;
37997;SDS011;24079;51.824;4.682;2023-06-01T02:56:17;20.55;;;11.02;;
37997;SDS011;24079;51.824;4.682;2023-06-01T02:58:43;17.63;;;10.25;;
37997;SDS011;24079;51.824;4.682;2023-06-01T03:01:09;22.48;;;11.93;;
37997;SDS011;24079;51.824;4.682;2023-06-01T03:03:37;20.98;;;11.73;;
37997;SDS011;24079;51.824;4.682;2023-06-01T03:06:04;20.58;;;11.00;;
37997;SDS011;24079;51.824;4.682;2023-06-01T03:08:31;24.35;;;11.13;;
37997;SDS011;24079;51.824;4.682;2023-06-01T03:10:58;22.52;;;10.63;;
37997;SDS011;24079;51.824;4.682;2023-06-01T03:13:24;22.40;;;11.27;;
37997;SDS011;24079;51.824;4.682;2023-06-01T03:15:50;18.10;;;10.38;;
37997;SDS011;24079;51.824;4.682;2023-06-01T03:18:16;21.55;;;10.60;;
37997;SDS011;24079;51.824;4.682;2023-06-01T03:20:42;22.75;;;11.30;;
37997;SDS011;24079;51.824;4.682;2023-06-01T03:23:08;22.15;;;10.88;;
37997;SDS011;24079;51.824;4.682;2023-06-01T03:25:34;15.35;;;10.93;;
37997;SDS011;24079;51.824;4.682;2023-06-01T03:28:00;23.95;;;10.38;;
37997;SDS011;24079;51.824;4.682;2023-06-01T03:30:26;21.90;;;10.75;;
37997;SDS011;24079;51.824;4.682;2023-06-01T03:32:52;21.25;;;11.90;;
37997;SDS011;24079;51.824;4.682;2023-06-01T03:35:18;20.70;;;10.90;;
37997;SDS011;24079;51.824;4.682;2023-06-01T03:37:45;21.30;;;10.45;;
37997;SDS011;24079;51.824;4.682;2023-06-01T03:40:11;22.52;;;10.90;;
37997;SDS011;24079;51.824;4.682;2023-06-01T03:42:38;18.92;;;10.30;;
37997;SDS011;24079;51.824;4.682;2023-06-01T03:45:08;18.95;;;11.07;;
37997;SDS011;24079;51.824;4.682;2023-06-01T03:47:35;23.20;;;11.30;;
37997;SDS011;24079;51.824;4.682;2023-06-01T03:50:02;21.70;;;10.85;;
37997;SDS011;24079;51.824;4.682;2023-06-01T03:52:29;20.55;;;10.75;;
37997;SDS011;24079;51.824;4.682;2023-06-01T03:54:55;24.23;;;11.27;;
37997;SDS011;24079;51.824;4.682;2023-06-01T03:57:21;24.60;;;11.32;;
37997;SDS011;24079;51.824;4.682;2023-06-01T03:59:47;19.77;;;11.10;;
37997;SDS011;24079;51.824;4.682;2023-06-01T04:02:13;18.73;;;9.65;;
37997;SDS011;24079;51.824;4.682;2023-06-01T04:04:39;19.00;;;10.50;;
37997;SDS011;24079;51.824;4.682;2023-06-01T04:07:10;20.35;;;10.98;;
37997;SDS011;24079;51.824;4.682;2023-06-01T04:09:39;21.83;;;10.00;;
37997;SDS011;24079;51.824;4.682;2023-06-01T04:12:09;26.17;;;11.20;;
37997;SDS011;24079;51.824;4.682;2023-06-01T04:14:35;21.38;;;10.25;;
37997;SDS011;24079;51.824;4.682;2023-06-01T04:17:01;21.63;;;10.60;;
37997;SDS011;24079;51.824;4.682;2023-06-01T04:19:26;19.20;;;10.75;;
37997;SDS011;24079;51.824;4.682;2023-06-01T04:21:52;17.48;;;10.18;;
37997;SDS011;24079;51.824;4.682;2023-06-01T04:24:18;21.30;;;9.73;;
37997;SDS011;24079;51.824;4.682;2023-06-01T04:26:43;19.30;;;10.70;;
37997;SDS011;24079;51.824;4.682;2023-06-01T04:29:09;18.75;;;10.57;;
37997;SDS011;24079;51.824;4.682;2023-06-01T04:31:37;19.33;;;10.70;;
37997;SDS011;24079;51.824;4.682;2023-06-01T04:34:03;19.13;;;9.93;;
37997;SDS011;24079;51.824;4.682;2023-06-01T04:36:30;18.73;;;10.23;;
37997;SDS011;24079;51.824;4.682;2023-06-01T04:38:58;21.23;;;10.65;;
37997;SDS011;24079;51.824;4.682;2023-06-01T04:41:24;19.42;;;9.88;;
37997;SDS011;24079;51.824;4.682;2023-06-01T04:43:54;22.35;;;10.82;;
37997;SDS011;24079;51.824;4.682;2023-06-01T04:46:23;18.70;;;10.27;;
37997;SDS011;24079;51.824;4.682;2023-06-01T04:48:51;24.98;;;11.57;;
37997;SDS011;24079;51.824;4.682;2023-06-01T04:51:17;18.85;;;10.30;;
37997;SDS011;24079;51.824;4.682;2023-06-01T04:53:49;20.05;;;11.18;;
37997;SDS011;24079;51.824;4.682;2023-06-01T04:56:17;24.02;;;11.25;;
37997;SDS011;24079;51.824;4.682;2023-06-01T04:58:47;21.77;;;10.65;;
37997;SDS011;24079;51.824;4.682;2023-06-01T05:01:14;24.70;;;10.60;;
37997;SDS011;24079;51.824;4.682;2023-06-01T05:03:43;30.92;;;10.10;;
37997;SDS011;24079;51.824;4.682;2023-06-01T05:06:10;25.60;;;10.68;;
37997;SDS011;24079;51.824;4.682;2023-06-01T05:08:40;25.33;;;11.07;;
37997;SDS011;24079;51.824;4.682;2023-06-01T05:11:06;20.63;;;10.48;;
37997;SDS011;24079;51.824;4.682;2023-06-01T05:13:39;25.00;;;10.25;;
37997;SDS011;24079;51.824;4.682;2023-06-01T05:16:06;21.38;;;10.80;;
37997;SDS011;24079;51.824;4.682;2023-06-01T05:18:33;25.77;;;10.25;;
37997;SDS011;24079;51.824;4.682;2023-06-01T05:20:59;20.30;;;10.00;;
37997;SDS011;24079;51.824;4.682;2023-06-01T05:23:25;23.75;;;10.18;;
37997;SDS011;24079;51.824;4.682;2023-06-01T05:25:52;21.33;;;9.23;;
37997;SDS011;24079;51.824;4.682;2023-06-01T05:28:20;26.27;;;10.85;;
37997;SDS011;24079;51.824;4.682;2023-06-01T05:30:46;18.83;;;9.45;;
37997;SDS011;24079;51.824;4.682;2023-06-01T05:33:11;20.38;;;10.65;;
37997;SDS011;24079;51.824;4.682;2023-06-01T05:35:37;25.38;;;10.98;;
37997;SDS011;24079;51.824;4.682;2023-06-01T05:38:03;22.50;;;9.43;;
37997;SDS011;24079;51.824;4.682;2023-06-01T05:40:28;19.98;;;9.43;;
37997;SDS011;24079;51.824;4.682;2023-06-01T05:42:54;26.45;;;9.90;;
37997;SDS011;24079;51.824;4.682;2023-06-01T05:45:20;24.83;;;10.80;;
37997;SDS011;24079;51.824;4.682;2023-06-01T05:47:46;19.98;;;9.50;;
37997;SDS011;24079;51.824;4.682;2023-06-01T05:50:11;21.92;;;10.00;;
37997;SDS011;24079;51.824;4.682;2023-06-01T05:52:37;20.48;;;9.57;;
37997;SDS011;24079;51.824;4.682;2023-06-01T05:55:04;22.92;;;9.82;;
37997;SDS011;24079;51.824;4.682;2023-06-01T05:57:30;18.80;;;8.95;;
37997;SDS011;24079;51.824;4.682;2023-06-01T05:59:55;19.83;;;10.52;;
37997;SDS011;24079;51.824;4.682;2023-06-01T06:02:21;20.08;;;10.60;;
37997;SDS011;24079;51.824;4.682;2023-06-01T06:04:47;23.77;;;10.68;;
37997;SDS011;24079;51.824;4.682;2023-06-01T06:07:12;22.90;;;10.30;;
37997;SDS011;24079;51.824;4.682;2023-06-01T06:09:38;21.00;;;10.23;;
37997;SDS011;24079;51.824;4.682;2023-06-01T06:12:04;22.15;;;10.25;;
37997;SDS011;24079;51.824;4.682;2023-06-01T06:14:31;23.63;;;9.95;;
37997;SDS011;24079;51.824;4.682;2023-06-01T06:16:56;22.60;;;10.68;;
37997;SDS011;24079;51.824;4.682;2023-06-01T06:19:22;23.50;;;10.35;;
37997;SDS011;24079;51.824;4.682;2023-06-01T06:21:48;21.90;;;10.52;;
37997;SDS011;24079;51.824;4.682;2023-06-01T06:24:13;25.25;;;11.13;;
37997;SDS011;24079;51.824;4.682;2023-06-01T06:26:39;24.58;;;10.13;;
37997;SDS011;24079;51.824;4.682;2023-06-01T06:29:05;22.67;;;10.20;;
37997;SDS011;24079;51.824;4.682;2023-06-01T06:31:30;23.95;;;9.90;;
37997;SDS011;24079;51.824;4.682;2023-06-01T06:33:56;25.00;;;10.77;;
37997;SDS011;24079;51.824;4.682;2023-06-01T06:36:21;20.30;;;11.57;;
37997;SDS011;24079;51.824;4.682;2023-06-01T06:38:47;20.63;;;10.02;;
37997;SDS011;24079;51.824;4.682;2023-06-01T06:41:13;22.67;;;9.27;;
37997;SDS011;24079;51.824;4.682;2023-06-01T06:43:38;20.85;;;9.73;;
37997;SDS011;24079;51.824;4.682;2023-06-01T06:46:04;26.92;;;9.35;;
37997;SDS011;24079;51.824;4.682;2023-06-01T06:48:30;17.63;;;8.52;;
37997;SDS011;24079;51.824;4.682;2023-06-01T06:50:56;19.88;;;8.73;;
37997;SDS011;24079;51.824;4.682;2023-06-01T06:53:21;16.52;;;8.50;;
37997;SDS011;24079;51.824;4.682;2023-06-01T06:55:47;20.73;;;8.88;;
37997;SDS011;24079;51.824;4.682;2023-06-01T06:58:13;16.55;;;8.18;;
37997;SDS011;24079;51.824;4.682;2023-06-01T07:00:39;17.40;;;8.85;;
37997;SDS011;24079;51.824;4.682;2023-06-01T07:03:05;24.65;;;8.90;;
37997;SDS011;24079;51.824;4.682;2023-06-01T07:05:31;18.20;;;7.78;;
37997;SDS011;24079;51.824;4.682;2023-06-01T07:07:57;18.23;;;8.18;;
37997;SDS011;24079;51.824;4.682;2023-06-01T07:10:22;18.23;;;8.35;;
37997;SDS011;24079;51.824;4.682;2023-06-01T07:12:48;17.63;;;8.70;;
37997;SDS011;24079;51.824;4.682;2023-06-01T07:15:14;20.58;;;8.68;;
37997;SDS011;24079;51.824;4.682;2023-06-01T07:17:41;20.92;;;9.38;;
37997;SDS011;24079;51.824;4.682;2023-06-01T07:20:07;18.98;;;9.02;;
37997;SDS011;24079;51.824;4.682;2023-06-01T07:22:36;18.50;;;8.50;;
37997;SDS011;24079;51.824;4.682;2023-06-01T07:25:02;21.75;;;8.50;;
37997;SDS011;24079;51.824;4.682;2023-06-01T07:27:27;23.25;;;9.10;;
37997;SDS011;24079;51.824;4.682;2023-06-01T07:29:53;13.93;;;7.00;;
37997;SDS011;24079;51.824;4.682;2023-06-01T07:32:21;20.23;;;7.53;;
37997;SDS011;24079;51.824;4.682;2023-06-01T07:34:47;13.15;;;7.50;;
37997;SDS011;24079;51.824;4.682;2023-06-01T07:37:13;15.18;;;7.07;;
37997;SDS011;24079;51.824;4.682;2023-06-01T07:39:39;12.23;;;6.32;;
37997;SDS011;24079;51.824;4.682;2023-06-01T07:42:04;15.05;;;5.90;;
37997;SDS011;24079;51.824;4.682;2023-06-01T07:44:30;18.67;;;7.07;;
37997;SDS011;24079;51.824;4.682;2023-06-01T07:46:56;15.02;;;6.35;;
37997;SDS011;24079;51.824;4.682;2023-06-01T07:49:22;17.70;;;6.88;;
37997;SDS011;24079;51.824;4.682;2023-06-01T07:51:47;13.93;;;6.55;;
37997;SDS011;24079;51.824;4.682;2023-06-01T07:54:14;17.13;;;6.63;;
37997;SDS011;24079;51.824;4.682;2023-06-01T07:56:40;16.77;;;6.65;;
37997;SDS011;24079;51.824;4.682;2023-06-01T07:59:06;15.55;;;6.00;;
37997;SDS011;24079;51.824;4.682;2023-06-01T08:01:31;14.23;;;6.03;;
37997;SDS011;24079;51.824;4.682;2023-06-01T08:03:57;16.80;;;5.70;;
37997;SDS011;24079;51.824;4.682;2023-06-01T08:06:23;13.65;;;6.40;;
37997;SDS011;24079;51.824;4.682;2023-06-01T08:08:50;16.40;;;6.30;;
37997;SDS011;24079;51.824;4.682;2023-06-01T08:11:17;11.93;;;6.13;;
37997;SDS011;24079;51.824;4.682;2023-06-01T08:13:43;17.15;;;6.63;;
37997;SDS011;24079;51.824;4.682;2023-06-01T08:16:11;16.77;;;6.10;;
37997;SDS011;24079;51.824;4.682;2023-06-01T08:18:38;11.95;;;6.60;;
37997;SDS011;24079;51.824;4.682;2023-06-01T08:21:04;14.65;;;6.32;;
37997;SDS011;24079;51.824;4.682;2023-06-01T08:23:30;15.52;;;6.53;;
37997;SDS011;24079;51.824;4.682;2023-06-01T08:25:56;14.63;;;6.03;;
37997;SDS011;24079;51.824;4.682;2023-06-01T08:28:21;23.75;;;6.13;;
37997;SDS011;24079;51.824;4.682;2023-06-01T08:30:47;12.13;;;6.30;;
37997;SDS011;24079;51.824;4.682;2023-06-01T08:33:12;16.05;;;6.18;;
37997;SDS011;24079;51.824;4.682;2023-06-01T08:35:38;15.57;;;6.32;;
37997;SDS011;24079;51.824;4.682;2023-06-01T08:38:04;14.27;;;5.60;;
37997;SDS011;24079;51.824;4.682;2023-06-01T08:40:30;13.60;;;5.75;;
37997;SDS011;24079;51.824;4.682;2023-06-01T08:45:27;15.88;;;5.88;;
37997;SDS011;24079;51.824;4.682;2023-06-01T08:47:54;13.85;;;5.85;;
37997;SDS011;24079;51.824;4.682;2023-06-01T08:50:23;10.88;;;5.40;;
37997;SDS011;24079;51.824;4.682;2023-06-01T08:52:52;12.82;;;5.88;;
37997;SDS011;24079;51.824;4.682;2023-06-01T08:55:21;11.93;;;5.53;;
37997;SDS011;24079;51.824;4.682;2023-06-01T08:57:47;21.20;;;6.50;;
37997;SDS011;24079;51.824;4.682;2023-06-01T09:00:14;10.27;;;5.05;;
37997;SDS011;24079;51.824;4.682;2023-06-01T09:02:42;13.85;;;5.60;;
37997;SDS011;24079;51.824;4.682;2023-06-01T09:05:09;13.57;;;5.80;;
37997;SDS011;24079;51.824;4.682;2023-06-01T09:07:37;13.38;;;5.50;;
37997;SDS011;24079;51.824;4.682;2023-06-01T09:10:03;14.90;;;6.07;;
37997;SDS011;24079;51.824;4.682;2023-06-01T09:12:29;12.82;;;4.97;;
37997;SDS011;24079;51.824;4.682;2023-06-01T09:15:09;10.38;;;4.75;;
37997;SDS011;24079;51.824;4.682;2023-06-01T09:17:34;11.48;;;5.65;;
37997;SDS011;24079;51.824;4.682;2023-06-01T09:20:01;11.95;;;5.35;;
37997;SDS011;24079;51.824;4.682;2023-06-01T09:22:42;14.15;;;5.70;;
37997;SDS011;24079;51.824;4.682;2023-06-01T09:25:10;10.07;;;5.18;;
37997;SDS011;24079;51.824;4.682;2023-06-01T09:27:44;10.65;;;5.47;;
37997;SDS011;24079;51.824;4.682;2023-06-01T09:30:14;12.30;;;5.57;;
37997;SDS011;24079;51.824;4.682;2023-06-01T09:32:41;13.60;;;5.82;;
37997;SDS011;24079;51.824;4.682;2023-06-01T09:35:09;11.90;;;5.53;;
37997;SDS011;24079;51.824;4.682;2023-06-01T09:37:36;15.95;;;5.97;;
37997;SDS011;24079;51.824;4.682;2023-06-01T09:40:02;13.40;;;5.35;;
37997;SDS011;24079;51.824;4.682;2023-06-01T09:42:41;14.18;;;5.80;;
37997;SDS011;24079;51.824;4.682;2023-06-01T09:45:40;14.57;;;5.57;;
37997;SDS011;24079;51.824;4.682;2023-06-01T09:48:15;14.57;;;5.95;;
37997;SDS011;24079;51.824;4.682;2023-06-01T09:50:46;13.32;;;5.38;;
37997;SDS011;24079;51.824;4.682;2023-06-01T09:53:12;11.82;;;5.60;;
37997;SDS011;24079;51.824;4.682;2023-06-01T09:58:24;8.85;;;5.25;;
37997;SDS011;24079;51.824;4.682;2023-06-01T10:00:51;12.40;;;5.72;;
37997;SDS011;24079;51.824;4.682;2023-06-01T10:03:17;10.93;;;5.63;;
37997;SDS011;24079;51.824;4.682;2023-06-01T10:05:45;15.50;;;6.07;;
37997;SDS011;24079;51.824;4.682;2023-06-01T10:08:12;13.55;;;6.07;;
37997;SDS011;24079;51.824;4.682;2023-06-01T10:10:41;13.00;;;6.30;;
37997;SDS011;24079;51.824;4.682;2023-06-01T10:13:09;13.02;;;6.22;;
37997;SDS011;24079;51.824;4.682;2023-06-01T10:15:36;12.50;;;6.25;;
37997;SDS011;24079;51.824;4.682;2023-06-01T10:18:03;11.80;;;6.03;;
37997;SDS011;24079;51.824;4.682;2023-06-01T10:20:33;13.38;;;6.20;;
37997;SDS011;24079;51.824;4.682;2023-06-01T10:23:00;14.65;;;6.65;;
37997;SDS011;24079;51.824;4.682;2023-06-01T10:25:37;14.57;;;6.97;;
37997;SDS011;24079;51.824;4.682;2023-06-01T10:28:08;16.65;;;6.60;;
37997;SDS011;24079;51.824;4.682;2023-06-01T10:30:36;12.68;;;6.30;;
37997;SDS011;24079;51.824;4.682;2023-06-01T10:33:02;13.65;;;6.35;;
37997;SDS011;24079;51.824;4.682;2023-06-01T10:40:40;18.55;;;6.53;;
37997;SDS011;24079;51.824;4.682;2023-06-01T10:46:00;14.18;;;6.72;;
37997;SDS011;24079;51.824;4.682;2023-06-01T10:51:20;18.75;;;7.65;;
37997;SDS011;24079;51.824;4.682;2023-06-01T10:53:47;16.48;;;7.40;;
37997;SDS011;24079;51.824;4.682;2023-06-01T10:56:19;18.00;;;8.30;;
37997;SDS011;24079;51.824;4.682;2023-06-01T10:58:55;16.73;;;6.97;;
37997;SDS011;24079;51.824;4.682;2023-06-01T11:01:53;15.93;;;7.28;;
37997;SDS011;24079;51.824;4.682;2023-06-01T11:04:35;10.77;;;6.70;;
37997;SDS011;24079;51.824;4.682;2023-06-01T11:10:04;13.52;;;7.22;;
37997;SDS011;24079;51.824;4.682;2023-06-01T11:13:16;12.90;;;7.30;;
37997;SDS011;24079;51.824;4.682;2023-06-01T11:15:36;12.68;;;6.93;;
37997;SDS011;24079;51.824;4.682;2023-06-01T11:21:09;14.95;;;7.60;;
37997;SDS011;24079;51.824;4.682;2023-06-01T11:23:37;12.07;;;7.53;;
37997;SDS011;24079;51.824;4.682;2023-06-01T11:26:05;15.52;;;7.47;;
37997;SDS011;24079;51.824;4.682;2023-06-01T11:28:32;14.27;;;7.47;;
37997;SDS011;24079;51.824;4.682;2023-06-01T11:31:00;15.68;;;7.60;;
37997;SDS011;24079;51.824;4.682;2023-06-01T11:33:30;15.27;;;7.35;;
37997;SDS011;24079;51.824;4.682;2023-06-01T11:35:59;15.45;;;7.35;;
37997;SDS011;24079;51.824;4.682;2023-06-01T11:38:38;16.65;;;8.43;;
37997;SDS011;24079;51.824;4.682;2023-06-01T11:41:05;18.40;;;7.30;;
37997;SDS011;24079;51.824;4.682;2023-06-01T11:43:32;12.10;;;7.28;;
37997;SDS011;24079;51.824;4.682;2023-06-01T11:46:00;14.55;;;7.22;;
37997;SDS011;24079;51.824;4.682;2023-06-01T11:48:26;17.52;;;8.05;;
37997;SDS011;24079;51.824;4.682;2023-06-01T11:50:52;13.23;;;7.60;;
37997;SDS011;24079;51.824;4.682;2023-06-01T11:53:20;17.15;;;7.38;;
37997;SDS011;24079;51.824;4.682;2023-06-01T11:55:52;17.20;;;7.85;;
37997;SDS011;24079;51.824;4.682;2023-06-01T11:58:27;17.75;;;7.60;;
37997;SDS011;24079;51.824;4.682;2023-06-01T12:00:55;18.00;;;7.63;;
37997;SDS011;24079;51.824;4.682;2023-06-01T12:03:22;16.55;;;8.80;;
37997;SDS011;24079;51.824;4.682;2023-06-01T12:05:52;12.65;;;7.18;;
37997;SDS011;24079;51.824;4.682;2023-06-01T12:08:19;16.45;;;7.60;;
37997;SDS011;24079;51.824;4.682;2023-06-01T12:10:47;14.52;;;7.15;;
37997;SDS011;24079;51.824;4.682;2023-06-01T12:13:16;15.27;;;8.00;;
37997;SDS011;24079;51.824;4.682;2023-06-01T12:15:44;13.30;;;7.63;;
37997;SDS011;24079;51.824;4.682;2023-06-01T12:18:10;18.08;;;7.82;;
37997;SDS011;24079;51.824;4.682;2023-06-01T12:20:38;15.20;;;8.23;;
37997;SDS011;24079;51.824;4.682;2023-06-01T12:25:47;19.53;;;8.13;;
37997;SDS011;24079;51.824;4.682;2023-06-01T12:28:14;16.10;;;8.05;;
37997;SDS011;24079;51.824;4.682;2023-06-01T12:30:40;21.08;;;8.52;;
37997;SDS011;24079;51.824;4.682;2023-06-01T12:33:06;16.15;;;8.63;;
37997;SDS011;24079;51.824;4.682;2023-06-01T12:35:32;21.42;;;8.32;;
37997;SDS011;24079;51.824;4.682;2023-06-01T12:38:10;14.23;;;7.68;;
37997;SDS011;24079;51.824;4.682;2023-06-01T12:40:36;14.40;;;8.10;;
37997;SDS011;24079;51.824;4.682;2023-06-01T12:43:03;19.67;;;8.60;;
37997;SDS011;24079;51.824;4.682;2023-06-01T12:45:36;18.15;;;8.82;;
37997;SDS011;24079;51.824;4.682;2023-06-01T12:48:05;14.65;;;8.35;;
37997;SDS011;24079;51.824;4.682;2023-06-01T12:50:32;16.17;;;8.05;;
37997;SDS011;24079;51.824;4.682;2023-06-01T12:52:57;16.88;;;8.48;;
37997;SDS011;24079;51.824;4.682;2023-06-01T12:55:23;17.70;;;8.30;;
37997;SDS011;24079;51.824;4.682;2023-06-01T12:57:52;17.33;;;8.18;;
37997;SDS011;24079;51.824;4.682;2023-06-01T13:00:19;21.25;;;8.63;;
37997;SDS011;24079;51.824;4.682;2023-06-01T13:02:45;18.83;;;9.02;;
37997;SDS011;24079;51.824;4.682;2023-06-01T13:05:15;20.50;;;9.10;;
37997;SDS011;24079;51.824;4.682;2023-06-01T13:07:45;21.73;;;9.05;;
37997;SDS011;24079;51.824;4.682;2023-06-01T13:10:11;17.60;;;8.15;;
37997;SDS011;24079;51.824;4.682;2023-06-01T13:12:37;19.80;;;9.65;;
37997;SDS011;24079;51.824;4.682;2023-06-01T13:15:05;22.92;;;9.48;;
37997;SDS011;24079;51.824;4.682;2023-06-01T13:17:31;21.63;;;8.68;;
37997;SDS011;24079;51.824;4.682;2023-06-01T13:19:57;17.08;;;8.40;;
37997;SDS011;24079;51.824;4.682;2023-06-01T13:22:23;13.40;;;7.82;;
37997;SDS011;24079;51.824;4.682;2023-06-01T13:24:49;15.40;;;8.50;;
37997;SDS011;24079;51.824;4.682;2023-06-01T13:27:14;13.98;;;8.65;;
37997;SDS011;24079;51.824;4.682;2023-06-01T13:29:40;23.67;;;9.30;;
37997;SDS011;24079;51.824;4.682;2023-06-01T13:32:07;16.00;;;8.38;;
37997;SDS011;24079;51.824;4.682;2023-06-01T13:34:34;18.52;;;8.13;;
37997;SDS011;24079;51.824;4.682;2023-06-01T13:37:00;16.60;;;7.60;;
37997;SDS011;24079;51.824;4.682;2023-06-01T13:39:26;11.93;;;7.85;;
37997;SDS011;24079;51.824;4.682;2023-06-01T13:41:52;15.48;;;7.40;;
37997;SDS011;24079;51.824;4.682;2023-06-01T13:44:17;13.18;;;7.80;;
37997;SDS011;24079;51.824;4.682;2023-06-01T13:46:43;16.23;;;7.78;;
37997;SDS011;24079;51.824;4.682;2023-06-01T13:49:09;15.48;;;7.40;;
37997;SDS011;24079;51.824;4.682;2023-06-01T13:51:35;15.30;;;6.93;;
37997;SDS011;24079;51.824;4.682;2023-06-01T13:54:03;13.73;;;7.53;;
37997;SDS011;24079;51.824;4.682;2023-06-01T13:56:29;12.15;;;6.93;;
37997;SDS011;24079;51.824;4.682;2023-06-01T13:58:55;12.82;;;6.28;;
37997;SDS011;24079;51.824;4.682;2023-06-01T14:01:22;14.07;;;5.70;;
37997;SDS011;24079;51.824;4.682;2023-06-01T14:03:48;12.98;;;6.28;;
37997;SDS011;24079;51.824;4.682;2023-06-01T14:06:15;23.08;;;6.43;;
37997;SDS011;24079;51.824;4.682;2023-06-01T14:08:41;10.70;;;5.22;;
37997;SDS011;24079;51.824;4.682;2023-06-01T14:11:07;13.07;;;5.60;;
37997;SDS011;24079;51.824;4.682;2023-06-01T14:13:33;8.82;;;5.10;;
37997;SDS011;24079;51.824;4.682;2023-06-01T14:15:59;17.48;;;5.93;;
37997;SDS011;24079;51.824;4.682;2023-06-01T14:18:25;13.80;;;5.68;;
37997;SDS011;24079;51.824;4.682;2023-06-01T14:20:51;13.85;;;5.65;;
37997;SDS011;24079;51.824;4.682;2023-06-01T14:23:18;12.63;;;5.57;;
37997;SDS011;24079;51.824;4.682;2023-06-01T14:25:48;12.10;;;5.40;;
37997;SDS011;24079;51.824;4.682;2023-06-01T14:28:14;10.95;;;4.85;;
37997;SDS011;24079;51.824;4.682;2023-06-01T14:30:40;10.50;;;5.38;;
37997;SDS011;24079;51.824;4.682;2023-06-01T14:33:06;10.32;;;4.60;;
37997;SDS011;24079;51.824;4.682;2023-06-01T14:35:32;7.43;;;5.05;;
37997;SDS011;24079;51.824;4.682;2023-06-01T14:37:58;11.35;;;5.63;;
37997;SDS011;24079;51.824;4.682;2023-06-01T14:40:24;9.00;;;4.63;;
37997;SDS011;24079;51.824;4.682;2023-06-01T14:42:51;9.52;;;4.63;;
37997;SDS011;24079;51.824;4.682;2023-06-01T14:45:17;5.93;;;4.20;;
37997;SDS011;24079;51.824;4.682;2023-06-01T14:47:44;8.05;;;4.10;;
37997;SDS011;24079;51.824;4.682;2023-06-01T14:50:11;8.60;;;4.10;;
37997;SDS011;24079;51.824;4.682;2023-06-01T14:52:37;8.10;;;3.40;;
37997;SDS011;24079;51.824;4.682;2023-06-01T14:55:03;6.00;;;3.63;;
37997;SDS011;24079;51.824;4.682;2023-06-01T14:57:30;7.93;;;3.53;;
37997;SDS011;24079;51.824;4.682;2023-06-01T14:59:56;7.68;;;3.72;;
37997;SDS011;24079;51.824;4.682;2023-06-01T15:02:22;7.22;;;3.22;;
37997;SDS011;24079;51.824;4.682;2023-06-01T15:04:48;4.65;;;3.00;;
37997;SDS011;24079;51.824;4.682;2023-06-01T15:07:14;7.70;;;3.20;;
37997;SDS011;24079;51.824;4.682;2023-06-01T15:09:40;5.90;;;2.40;;
37997;SDS011;24079;51.824;4.682;2023-06-01T15:12:06;9.35;;;3.40;;